Time;durP1;ratioP1;P1;durP2;ratioP2;P2;SDS_P1;SDS_P2;PMS_P1;PMS_P2;Temp;Humidity;BMP_temperature;BMP_pressure;BME280_temperature;BME280_humidity;BME280_pressure;Samples;Min_cycle;Max_cycle;Signal;HPM_P1;HPM_P2
2022/02/17 06:02:49;;;;;;;13.83;3.03;;;7.50;99.90;;;;;;6058982;23;20980;-91
2022/02/17 06:05:27;;;;;;;13.57;4.27;;;7.50;99.90;;;;;;6077930;23;20443;-88
2022/02/17 06:07:55;;;;;;;15.00;3.97;;;7.40;99.90;;;;;;6070783;23;20427;-85
2022/02/17 06:10:24;;;;;;;10.57;2.87;;;7.30;99.90;;;;;;6067975;23;20531;-88
2022/02/17 06:12:53;;;;;;;13.60;3.57;;;7.20;99.90;;;;;;6066211;23;20431;-89
2022/02/17 06:15:21;;;;;;;11.37;4.10;;;7.20;99.90;;;;;;6087340;23;20455;-87
2022/02/17 06:17:50;;;;;;;15.97;3.80;;;7.10;99.90;;;;;;6073444;23;20441;-86
2022/02/17 06:20:21;;;;;;;12.00;4.23;;;7.20;99.90;;;;;;6072315;23;20538;-88
2022/02/17 06:22:51;;;;;;;15.17;3.60;;;7.20;99.90;;;;;;6076173;23;20431;-86
2022/02/17 06:25:20;;;;;;;13.37;3.83;;;7.20;99.90;;;;;;6071448;23;20482;-86
2022/02/17 06:27:49;;;;;;;12.97;3.60;;;7.10;99.90;;;;;;6068599;23;20521;-89
2022/02/17 06:30:20;;;;;;;14.90;5.23;;;7.10;99.90;;;;;;6073364;23;20538;-86
2022/02/17 06:32:50;;;;;;;13.00;3.80;;;7.00;99.90;;;;;;6042211;23;20443;-90
2022/02/17 06:35:29;;;;;;;13.83;3.57;;;7.10;99.90;;;;;;6044659;23;20482;-89
2022/02/17 06:38:02;;;;;;;9.90;3.23;;;7.00;99.90;;;;;;6041888;23;20424;-88
2022/02/17 06:40:31;;;;;;;10.23;3.53;;;7.00;99.90;;;;;;6093136;23;20526;-90
2022/02/17 06:43:05;;;;;;;11.30;4.30;;;7.00;99.90;;;;;;6070327;23;20435;-85
2022/02/17 06:45:35;;;;;;;10.97;4.57;;;7.00;99.90;;;;;;6072216;23;20451;-87
2022/02/17 06:48:05;;;;;;;12.47;3.57;;;6.90;99.90;;;;;;6075153;23;20426;-86
2022/02/17 06:50:34;;;;;;;19.50;4.47;;;7.00;99.90;;;;;;6072911;23;20458;-86
2022/02/17 06:53:03;;;;;;;17.83;4.10;;;7.00;99.90;;;;;;6072136;23;21226;-88
2022/02/17 06:55:33;;;;;;;17.87;5.27;;;7.00;99.90;;;;;;6072769;23;20455;-90
2022/02/17 06:58:05;;;;;;;15.93;4.03;;;7.00;99.90;;;;;;6071375;23;20548;-86
2022/02/17 07:00:33;;;;;;;13.40;5.27;;;7.00;99.90;;;;;;6069404;23;20499;-86
2022/02/17 07:03:06;;;;;;;13.97;4.73;;;7.10;99.90;;;;;;6071591;23;20510;-87
2022/02/17 07:05:36;;;;;;;15.23;5.03;;;7.00;99.90;;;;;;6071913;23;20529;-87
2022/02/17 07:08:05;;;;;;;11.57;4.30;;;7.10;99.90;;;;;;6072061;23;20433;-86
2022/02/17 07:13:19;;;;;;;16.57;3.33;;;7.00;99.90;;;;;;6073082;23;20434;-87
2022/02/17 07:15:48;;;;;;;9.67;3.57;;;7.00;99.90;;;;;;6070467;23;20458;-88
2022/02/17 07:18:19;;;;;;;16.93;5.30;;;7.00;99.90;;;;;;6071647;23;20438;-88
2022/02/17 07:20:50;;;;;;;8.03;3.23;;;7.00;99.90;;;;;;6075192;23;20461;-92
2022/02/17 07:23:20;;;;;;;10.53;3.33;;;6.90;99.90;;;;;;6093382;23;20486;-91
2022/02/17 07:25:48;;;;;;;8.87;3.30;;;7.00;99.90;;;;;;6096089;23;20435;-91
2022/02/17 07:28:19;;;;;;;15.00;3.13;;;7.00;99.90;;;;;;6094600;23;20421;-91
2022/02/17 07:30:48;;;;;;;12.07;3.00;;;6.90;99.90;;;;;;6079661;23;20449;-88
2022/02/17 07:33:16;;;;;;;12.70;3.40;;;6.90;99.90;;;;;;6073369;23;20441;-86
2022/02/17 07:35:45;;;;;;;9.67;3.30;;;6.90;99.90;;;;;;6072381;23;20522;-87
2022/02/17 07:38:35;;;;;;;13.03;3.27;;;6.80;99.90;;;;;;6073314;23;20518;-87
2022/02/17 07:41:04;;;;;;;10.30;3.20;;;6.80;99.90;;;;;;6074025;23;20478;-86
2022/02/17 07:43:32;;;;;;;10.20;3.33;;;6.80;99.90;;;;;;6072238;23;20466;-86
2022/02/17 07:46:01;;;;;;;11.03;3.50;;;6.70;99.90;;;;;;6078404;23;20455;-90
2022/02/17 07:48:30;;;;;;;10.40;2.50;;;6.70;99.90;;;;;;6089771;23;20453;-90
2022/02/17 07:50:58;;;;;;;8.40;2.63;;;6.60;99.90;;;;;;6094053;23;20422;-91
2022/02/17 07:53:27;;;;;;;8.93;2.53;;;6.60;99.90;;;;;;6092894;23;20430;-89
2022/02/17 07:55:59;;;;;;;11.73;2.93;;;6.60;99.90;;;;;;6094800;23;20450;-88
2022/02/17 07:58:28;;;;;;;8.50;2.87;;;6.70;99.90;;;;;;6093174;23;20425;-87
2022/02/17 08:00:56;;;;;;;7.40;2.90;;;6.70;99.90;;;;;;6080045;23;20533;-88
2022/02/17 08:03:25;;;;;;;12.73;3.70;;;6.70;99.90;;;;;;6082421;23;20432;-85
2022/02/17 08:05:53;;;;;;;11.40;3.40;;;6.70;99.90;;;;;;6080616;23;20451;-86
2022/02/17 08:08:48;;;;;;;11.83;3.30;;;6.60;99.90;;;;;;6081612;23;20475;-87
2022/02/17 08:11:20;;;;;;;11.80;3.30;;;6.70;99.90;;;;;;6079852;23;20415;-86
2022/02/17 08:13:49;;;;;;;17.37;4.33;;;6.60;99.90;;;;;;6080158;23;20454;-86
2022/02/17 08:16:17;;;;;;;13.10;3.57;;;6.60;99.90;;;;;;6110244;23;20486;-85
2022/02/17 08:18:45;;;;;;;15.27;4.17;;;6.60;99.90;;;;;;6075328;23;20445;-86
2022/02/17 08:21:33;;;;;;;13.63;3.13;;;6.60;99.90;;;;;;6076304;23;20450;-85
2022/02/17 08:24:01;;;;;;;12.87;3.10;;;6.60;99.90;;;;;;6074643;23;20462;-87
2022/02/17 08:26:36;;;;;;;12.07;3.83;;;6.60;99.90;;;;;;6076421;23;20431;-87
2022/02/17 08:29:06;;;;;;;11.17;3.73;;;6.50;99.90;;;;;;6073229;23;20457;-84
2022/02/17 08:31:35;;;;;;;14.20;4.53;;;6.60;99.90;;;;;;6075118;23;20485;-88
2022/02/17 08:34:04;;;;;;;14.23;4.20;;;6.50;99.90;;;;;;6074946;23;20461;-86
2022/02/17 08:36:36;;;;;;;12.40;3.20;;;6.60;99.90;;;;;;6073164;23;20434;-86
2022/02/17 08:39:06;;;;;;;10.67;3.50;;;6.50;99.90;;;;;;6073992;23;20444;-87
2022/02/17 08:41:37;;;;;;;12.10;3.50;;;6.60;99.90;;;;;;6074177;23;20494;-85
2022/02/17 08:44:07;;;;;;;15.03;3.60;;;6.60;99.90;;;;;;6075287;23;20796;-86
2022/02/17 08:46:35;;;;;;;11.97;3.70;;;6.60;99.90;;;;;;6075519;23;20501;-89
2022/02/17 08:49:06;;;;;;;11.90;2.97;;;6.70;99.90;;;;;;6073383;23;20480;-86
2022/02/17 08:51:37;;;;;;;11.90;3.10;;;6.70;99.90;;;;;;6076969;23;20566;-88
2022/02/17 08:54:06;;;;;;;13.53;3.30;;;6.70;99.90;;;;;;6074391;23;20461;-88
2022/02/17 08:56:36;;;;;;;9.37;3.10;;;6.70;99.90;;;;;;6074388;23;20434;-88
2022/02/17 08:59:05;;;;;;;11.23;2.93;;;6.70;99.90;;;;;;6074179;23;20459;-88
2022/02/17 09:01:38;;;;;;;11.17;3.37;;;6.70;99.90;;;;;;6074752;23;20477;-88
2022/02/17 09:04:07;;;;;;;13.30;3.03;;;6.70;99.90;;;;;;6075892;23;20526;-85
2022/02/17 09:06:35;;;;;;;12.00;3.40;;;6.70;99.90;;;;;;6074031;23;20439;-88
2022/02/17 09:09:04;;;;;;;8.43;3.90;;;6.70;99.90;;;;;;6072662;23;20489;-88
2022/02/17 09:11:32;;;;;;;11.87;3.13;;;6.60;99.90;;;;;;6077790;23;20427;-86
2022/02/17 09:14:03;;;;;;;14.90;5.40;;;6.60;99.90;;;;;;6074671;23;20507;-85
2022/02/17 09:16:33;;;;;;;10.70;3.43;;;6.60;99.90;;;;;;6075433;23;20435;-87
2022/02/17 09:19:03;;;;;;;9.10;2.87;;;6.60;99.90;;;;;;6105594;23;20784;-86
2022/02/17 09:21:33;;;;;;;7.13;2.70;;;6.60;99.90;;;;;;6075595;23;20473;-87
2022/02/17 09:24:02;;;;;;;13.23;3.20;;;6.60;99.90;;;;;;6074319;23;20458;-86
2022/02/17 09:26:33;;;;;;;6.10;2.40;;;6.60;99.90;;;;;;6074615;23;20897;-86
2022/02/17 09:29:03;;;;;;;7.00;2.10;;;6.60;99.90;;;;;;6072656;23;20447;-88
2022/02/17 09:31:49;;;;;;;5.97;1.53;;;6.60;99.90;;;;;;6078360;23;20450;-87
2022/02/17 09:34:18;;;;;;;10.70;3.17;;;6.60;99.90;;;;;;6077755;23;21015;-85
2022/02/17 09:36:46;;;;;;;5.83;2.20;;;6.50;99.90;;;;;;6075835;23;20434;-87
2022/02/17 09:39:15;;;;;;;5.57;1.90;;;6.50;99.90;;;;;;6082724;23;20443;-88
2022/02/17 09:41:43;;;;;;;8.07;2.33;;;6.50;99.90;;;;;;6112789;23;20771;-87
2022/02/17 09:44:13;;;;;;;6.80;2.00;;;6.40;99.90;;;;;;6078497;23;20462;-88
2022/02/17 09:46:45;;;;;;;5.90;1.63;;;6.40;99.90;;;;;;6076334;23;20431;-87
2022/02/17 09:49:18;;;;;;;7.77;1.60;;;6.30;99.90;;;;;;6074283;23;20449;-87
2022/02/17 09:51:47;;;;;;;3.03;1.37;;;6.30;99.90;;;;;;6076778;23;20422;-87
2022/02/17 09:54:16;;;;;;;1.40;0.80;;;6.20;99.90;;;;;;6074799;23;21294;-86
2022/02/17 09:56:44;;;;;;;2.03;1.10;;;6.20;99.90;;;;;;6077349;23;20975;-85
2022/02/17 09:59:16;;;;;;;3.30;1.47;;;6.10;99.90;;;;;;6074861;23;20452;-87
2022/02/17 10:01:54;;;;;;;6.20;1.80;;;6.00;99.90;;;;;;6085901;23;20458;-89
2022/02/17 10:04:24;;;;;;;5.40;1.83;;;6.00;99.90;;;;;;6071649;23;20455;-90
2022/02/17 10:06:55;;;;;;;5.80;1.60;;;6.10;99.90;;;;;;6074347;23;20908;-88
2022/02/17 10:09:34;;;;;;;3.93;1.30;;;6.10;99.90;;;;;;6073771;23;20423;-91
2022/02/17 10:12:04;;;;;;;4.50;1.30;;;6.10;99.90;;;;;;6074884;23;20423;-88
2022/02/17 10:14:33;;;;;;;2.50;0.90;;;6.10;99.90;;;;;;6072690;23;20455;-90
2022/02/17 10:17:04;;;;;;;2.23;0.93;;;6.10;99.90;;;;;;6073233;23;20426;-89
2022/02/17 10:19:35;;;;;;;1.30;0.70;;;6.10;99.90;;;;;;6074571;23;20534;-87
2022/02/17 10:22:06;;;;;;;2.83;1.00;;;6.10;99.90;;;;;;6075916;23;21109;-88
2022/02/17 10:24:41;;;;;;;7.07;1.47;;;6.00;99.90;;;;;;6072188;23;20461;-88
2022/02/17 10:27:12;;;;;;;5.50;2.07;;;6.00;99.90;;;;;;6073438;23;20418;-88
2022/02/17 10:29:58;;;;;;;5.87;2.10;;;6.10;99.90;;;;;;6072711;23;20535;-87
2022/02/17 10:32:28;;;;;;;7.20;1.90;;;6.20;99.90;;;;;;6073260;23;20435;-87
2022/02/17 10:35:07;;;;;;;7.13;2.40;;;6.30;99.90;;;;;;6075614;23;20765;-88
2022/02/17 10:37:47;;;;;;;6.80;2.23;;;6.40;99.90;;;;;;6076225;23;20430;-88
2022/02/17 10:40:21;;;;;;;7.50;2.23;;;6.40;99.90;;;;;;6074271;23;20456;-86
2022/02/17 10:42:59;;;;;;;10.20;2.43;;;6.40;99.90;;;;;;6074873;23;21018;-87
2022/02/17 10:45:39;;;;;;;8.37;2.37;;;6.50;99.90;;;;;;6074060;23;20451;-88
2022/02/17 10:48:15;;;;;;;12.27;3.33;;;6.50;99.90;;;;;;6075582;23;20434;-88
2022/02/17 10:50:46;;;;;;;11.17;2.67;;;6.50;99.90;;;;;;6073827;23;20494;-87
2022/02/17 10:53:18;;;;;;;8.60;2.23;;;6.50;99.90;;;;;;6072963;23;20461;-90
2022/02/17 10:55:58;;;;;;;8.20;2.53;;;6.60;99.90;;;;;;6072289;23;20462;-87
2022/02/17 10:58:29;;;;;;;8.90;2.10;;;6.60;99.90;;;;;;6072916;23;20446;-90
2022/02/17 11:01:02;;;;;;;9.00;2.80;;;6.70;99.90;;;;;;6075106;23;20454;-88
2022/02/17 11:03:32;;;;;;;10.40;4.30;;;6.70;99.90;;;;;;6074977;23;20458;-87
2022/02/17 11:06:09;;;;;;;11.27;2.70;;;6.70;99.90;;;;;;6071625;23;20482;-86
2022/02/17 11:08:38;;;;;;;9.77;2.03;;;6.70;99.90;;;;;;6070684;23;20455;-88
2022/02/17 11:11:07;;;;;;;9.23;2.50;;;6.70;99.90;;;;;;6075852;23;20506;-85
2022/02/17 11:13:35;;;;;;;5.60;2.30;;;6.70;99.90;;;;;;6076477;23;20442;-88
2022/02/17 11:16:11;;;;;;;6.57;1.80;;;6.80;99.90;;;;;;6075180;23;20438;-86
2022/02/17 11:18:42;;;;;;;6.27;2.00;;;6.70;99.90;;;;;;6085566;23;20515;-93
2022/02/17 11:21:15;;;;;;;7.60;2.57;;;6.70;99.90;;;;;;6082241;23;20439;-93
2022/02/17 11:23:45;;;;;;;4.23;1.73;;;6.70;99.90;;;;;;6083979;23;20497;-90
2022/02/17 11:26:21;;;;;;;5.10;1.73;;;6.70;99.90;;;;;;6077724;23;20465;-90
2022/02/17 11:28:54;;;;;;;4.30;1.80;;;6.80;99.90;;;;;;6077947;23;20469;-90
2022/02/17 11:31:24;;;;;;;3.50;1.30;;;6.80;99.90;;;;;;6077525;23;20545;-91
2022/02/17 11:33:57;;;;;;;4.60;1.60;;;6.80;99.90;;;;;;6082059;23;20457;-91
2022/02/17 11:36:32;;;;;;;5.80;1.30;;;6.80;99.90;;;;;;6082545;23;20533;-90
2022/02/17 11:39:10;;;;;;;3.00;1.90;;;6.70;99.90;;;;;;6075502;23;20442;-90
2022/02/17 11:41:45;;;;;;;3.90;1.20;;;6.60;99.90;;;;;;6077886;23;20940;-91
2022/02/17 11:44:19;;;;;;;4.67;1.33;;;6.60;99.90;;;;;;6078716;23;20541;-91
2022/02/17 11:46:54;;;;;;;4.97;1.70;;;6.60;99.90;;;;;;6078733;23;20462;-90
2022/02/17 11:49:51;;;;;;;8.53;1.80;;;6.60;99.90;;;;;;6083232;23;20446;-92
2022/02/17 11:52:21;;;;;;;7.20;1.50;;;6.60;99.90;;;;;;6076116;23;20455;-91
2022/02/17 11:55:24;;;;;;;6.27;1.57;;;6.50;99.90;;;;;;6079741;23;20450;-91
2022/02/17 11:58:01;;;;;;;6.47;1.93;;;6.50;99.90;;;;;;6082985;23;20454;-90
2022/02/17 12:00:38;;;;;;;6.63;2.00;;;6.40;99.90;;;;;;6076223;23;20783;-90
2022/02/17 12:03:08;;;;;;;4.93;1.93;;;6.40;99.90;;;;;;6076005;23;20450;-89
2022/02/17 12:05:36;;;;;;;5.07;1.50;;;6.30;99.90;;;;;;6078609;23;20493;-91
2022/02/17 12:08:29;;;;;;;6.90;1.90;;;6.40;99.90;;;;;;6083068;23;20439;-93
2022/02/17 12:11:27;;;;;;;5.00;1.60;;;6.30;99.90;;;;;;6081507;23;20458;-93
2022/02/17 12:13:56;;;;;;;3.70;1.27;;;6.30;99.90;;;;;;6095253;23;20418;-93
2022/02/17 12:16:34;;;;;;;5.00;1.60;;;6.30;99.90;;;;;;6096966;23;20423;-93
2022/02/17 12:19:11;;;;;;;11.37;1.50;;;6.30;99.90;;;;;;6087681;23;20446;-93
2022/02/17 12:21:42;;;;;;;3.23;1.00;;;6.20;99.90;;;;;;6070176;23;20423;-93
2022/02/17 12:24:13;;;;;;;2.30;0.70;;;6.30;99.90;;;;;;6068740;23;20459;-94
2022/02/17 12:26:47;;;;;;;6.17;1.70;;;6.20;99.90;;;;;;6068581;23;20474;-92
2022/02/17 12:29:29;;;;;;;6.03;1.83;;;6.10;99.90;;;;;;6071295;23;20457;-91
2022/02/17 12:32:01;;;;;;;3.57;1.40;;;6.10;99.90;;;;;;6090795;23;20435;-90
2022/02/17 12:34:33;;;;;;;3.30;1.80;;;6.10;99.90;;;;;;6093893;23;20459;-92
2022/02/17 12:37:03;;;;;;;4.00;1.33;;;6.10;99.90;;;;;;6097740;23;20483;-92
2022/02/17 12:39:32;;;;;;;4.13;1.30;;;6.00;99.90;;;;;;6096478;23;20443;-93
2022/02/17 12:42:03;;;;;;;5.07;1.13;;;6.00;99.90;;;;;;6097142;23;20427;-92
2022/02/17 12:44:35;;;;;;;6.93;1.63;;;6.00;99.90;;;;;;6097266;23;20439;-92
2022/02/17 12:47:05;;;;;;;3.83;1.27;;;6.00;99.90;;;;;;6098269;23;20410;-94
2022/02/17 12:49:35;;;;;;;4.53;1.60;;;6.00;99.90;;;;;;6097818;23;20426;-92
2022/02/17 12:52:09;;;;;;;5.20;1.50;;;6.00;99.90;;;;;;6099221;23;20426;-92
2022/02/17 12:54:43;;;;;;;5.07;1.70;;;6.00;99.90;;;;;;6099060;23;20458;-93
2022/02/17 12:57:16;;;;;;;4.67;1.17;;;5.90;99.90;;;;;;6098620;23;20415;-93
2022/02/17 12:59:46;;;;;;;5.43;1.40;;;5.90;99.90;;;;;;6098570;23;20518;-93
2022/02/17 13:02:14;;;;;;;5.40;1.50;;;5.80;99.90;;;;;;6098362;23;20442;-92
2022/02/17 13:04:48;;;;;;;4.83;1.43;;;5.70;99.90;;;;;;6098879;23;20449;-92
2022/02/17 13:07:22;;;;;;;5.50;1.40;;;5.70;99.90;;;;;;6099518;23;20434;-91
2022/02/17 13:09:55;;;;;;;4.87;1.77;;;5.60;99.90;;;;;;6098297;23;20495;-92
2022/02/17 13:12:24;;;;;;;5.70;1.50;;;5.60;99.90;;;;;;6099686;23;20406;-92
2022/02/17 13:14:57;;;;;;;5.60;1.27;;;5.60;99.90;;;;;;6098926;23;20439;-92
2022/02/17 13:17:34;;;;;;;5.10;1.53;;;5.50;99.90;;;;;;6098266;23;20427;-93
2022/02/17 13:20:27;;;;;;;2.37;1.40;;;5.50;99.90;;;;;;6096962;23;20454;-92
2022/02/17 13:22:58;;;;;;;5.83;1.37;;;5.50;99.90;;;;;;6098367;23;20427;-93
2022/02/17 13:25:39;;;;;;;4.13;1.23;;;5.50;99.90;;;;;;6099216;23;20448;-92
2022/02/17 13:28:14;;;;;;;1.70;0.73;;;5.50;99.90;;;;;;6098457;23;20430;-93
2022/02/17 13:30:44;;;;;;;4.00;0.90;;;5.50;99.90;;;;;;6096643;23;20458;-93
2022/02/17 13:33:21;;;;;;;1.27;0.73;;;5.50;99.90;;;;;;6098572;23;20454;-92
2022/02/17 13:36:01;;;;;;;3.67;0.70;;;5.50;99.90;;;;;;6146866;23;20465;-93
2022/02/17 13:38:31;;;;;;;2.00;0.60;;;5.40;99.90;;;;;;6103186;23;20406;-93
2022/02/17 13:41:13;;;;;;;3.20;0.90;;;5.30;99.90;;;;;;6104854;23;20455;-93
2022/02/17 13:43:45;;;;;;;2.37;1.13;;;5.40;99.90;;;;;;6128241;23;20436;-94
2022/02/17 13:46:15;;;;;;;3.03;1.33;;;5.40;99.90;;;;;;6099122;23;20418;-93
2022/02/17 13:48:43;;;;;;;3.87;1.30;;;5.50;99.90;;;;;;6094858;23;20411;-94
2022/02/17 13:51:15;;;;;;;3.50;1.23;;;5.50;99.90;;;;;;6069974;23;20412;-93
2022/02/17 13:53:47;;;;;;;4.03;1.20;;;5.60;99.90;;;;;;6102216;23;20450;-93
2022/02/17 13:56:23;;;;;;;3.40;1.10;;;5.50;99.90;;;;;;6128242;23;20429;-94
2022/02/17 13:59:01;;;;;;;1.80;0.90;;;5.50;99.90;;;;;;6126012;23;20427;-93
2022/02/17 14:01:37;;;;;;;1.60;0.90;;;5.40;99.90;;;;;;6125207;23;20421;-89
2022/02/17 14:04:06;;;;;;;2.20;1.10;;;5.30;99.90;;;;;;6116347;23;20453;-90
2022/02/17 14:06:36;;;;;;;0.83;0.70;;;5.20;99.90;;;;;;6121269;23;20892;-91
2022/02/17 14:09:04;;;;;;;3.00;1.00;;;5.20;99.90;;;;;;6124757;23;20425;-92
2022/02/17 14:11:37;;;;;;;2.47;1.07;;;5.20;99.90;;;;;;6123120;23;20438;-91
2022/02/17 14:14:07;;;;;;;1.97;1.13;;;5.10;99.90;;;;;;6119522;23;20481;-90
2022/02/17 14:16:36;;;;;;;5.63;2.47;;;5.20;99.90;;;;;;6120330;23;20429;-90
2022/02/17 14:19:35;;;;;;;5.10;2.20;;;5.10;99.90;;;;;;6119423;23;20450;-92
2022/02/17 14:22:08;;;;;;;5.13;1.67;;;5.20;99.90;;;;;;6122240;23;20434;-92
2022/02/17 14:24:36;;;;;;;12.20;3.27;;;5.30;99.90;;;;;;6122052;23;20465;-92
2022/02/17 14:27:05;;;;;;;10.90;2.73;;;5.30;99.90;;;;;;6117014;23;20437;-90
2022/02/17 14:29:34;;;;;;;7.20;2.80;;;5.30;99.90;;;;;;6114408;23;20461;-91
2022/02/17 14:32:05;;;;;;;13.83;3.40;;;5.40;99.90;;;;;;6140039;23;20465;-91
2022/02/17 14:34:34;;;;;;;14.93;4.60;;;5.40;99.90;;;;;;6122463;23;20450;-91
2022/02/17 14:37:02;;;;;;;15.07;4.27;;;5.50;99.90;;;;;;6121018;23;20771;-92
2022/02/17 14:39:32;;;;;;;17.63;5.10;;;5.70;99.90;;;;;;6116815;23;20470;-91
2022/02/17 14:42:00;;;;;;;12.30;3.83;;;5.80;99.90;;;;;;6121865;23;20520;-92
2022/02/17 14:44:29;;;;;;;12.70;2.90;;;5.90;99.90;;;;;;6146494;23;20462;-92
2022/02/17 14:47:00;;;;;;;13.97;3.67;;;6.00;99.90;;;;;;6141916;23;20431;-91
2022/02/17 14:49:28;;;;;;;12.50;4.00;;;6.10;99.90;;;;;;6140859;23;20442;-92
2022/02/17 14:51:58;;;;;;;14.17;3.67;;;6.20;99.90;;;;;;6135174;23;20440;-92
2022/02/17 14:54:26;;;;;;;14.97;3.43;;;6.20;99.90;;;;;;6109156;23;20457;-93
2022/02/17 14:56:57;;;;;;;11.40;3.80;;;6.20;99.90;;;;;;6142160;23;20437;-91
2022/02/17 14:59:25;;;;;;;16.07;3.40;;;6.20;99.90;;;;;;6119425;23;20449;-92
2022/02/17 15:01:54;;;;;;;9.37;3.30;;;6.20;99.90;;;;;;6110027;23;20900;-90
2022/02/17 15:04:22;;;;;;;16.17;4.13;;;6.20;99.90;;;;;;6111302;23;20541;-92
2022/02/17 15:06:53;;;;;;;8.67;2.80;;;6.20;99.90;;;;;;6110048;23;20458;-90
2022/02/17 15:09:21;;;;;;;13.50;3.60;;;6.10;99.90;;;;;;6116909;23;20446;-93
2022/02/17 15:11:50;;;;;;;8.27;2.43;;;6.00;99.90;;;;;;6115993;23;20453;-90
2022/02/17 15:14:20;;;;;;;7.70;2.30;;;6.00;99.90;;;;;;6116881;23;20449;-90
2022/02/17 15:16:48;;;;;;;8.57;2.50;;;5.90;99.90;;;;;;6122095;23;20436;-91
2022/02/17 15:19:17;;;;;;;10.17;2.77;;;5.90;99.90;;;;;;6119603;23;20451;-90
2022/02/17 15:21:46;;;;;;;9.73;2.43;;;5.80;99.90;;;;;;6110930;23;20472;-91
2022/02/17 15:24:14;;;;;;;9.60;2.93;;;5.80;99.90;;;;;;6115606;23;20457;-90
2022/02/17 15:26:42;;;;;;;16.27;3.50;;;5.80;99.90;;;;;;6110852;23;20430;-90
2022/02/17 15:29:11;;;;;;;9.43;3.37;;;5.90;99.90;;;;;;6120058;23;20464;-93
2022/02/17 15:31:40;;;;;;;9.07;2.73;;;5.90;99.90;;;;;;6122728;23;20410;-92
2022/02/17 15:34:09;;;;;;;14.43;3.53;;;5.90;99.90;;;;;;6126768;23;20437;-93
2022/02/17 15:36:37;;;;;;;12.60;3.77;;;5.90;99.90;;;;;;6127963;23;20485;-93
2022/02/17 15:39:07;;;;;;;13.93;3.60;;;6.00;99.90;;;;;;6125866;23;20441;-93
2022/02/17 15:41:39;;;;;;;14.83;3.87;;;6.00;99.90;;;;;;6115635;23;20436;-90
2022/02/17 15:44:07;;;;;;;8.63;3.03;;;6.00;99.90;;;;;;6112371;23;20525;-90
2022/02/17 15:46:36;;;;;;;13.53;3.97;;;6.10;99.90;;;;;;6114261;23;20436;-92
2022/02/17 15:49:05;;;;;;;16.87;3.77;;;6.10;99.90;;;;;;6115375;23;20445;-90
2022/02/17 15:51:34;;;;;;;14.50;3.60;;;6.10;99.90;;;;;;6111712;23;20509;-90
2022/02/17 15:54:02;;;;;;;8.20;2.57;;;6.10;99.90;;;;;;6112444;23;20465;-91
2022/02/17 15:56:30;;;;;;;9.60;3.20;;;6.10;99.90;;;;;;6124439;23;20434;-90
2022/02/17 15:58:58;;;;;;;4.03;2.43;;;6.10;99.90;;;;;;6148459;23;20433;-93
2022/02/17 16:01:27;;;;;;;9.17;2.70;;;5.90;99.90;;;;;;6125914;23;20484;-93
2022/02/17 16:04:16;;;;;;;8.00;2.13;;;5.90;99.90;;;;;;6127255;23;20469;-90
2022/02/17 16:06:44;;;;;;;9.70;2.87;;;5.90;99.90;;;;;;6127223;23;20427;-93
2022/02/17 16:09:13;;;;;;;5.30;2.63;;;5.80;99.90;;;;;;6128364;23;20413;-93
2022/02/17 16:11:41;;;;;;;9.60;2.63;;;5.70;99.90;;;;;;6128157;23;20406;-92
2022/02/17 16:14:14;;;;;;;6.67;2.17;;;5.70;99.90;;;;;;6121856;23;20463;-91
2022/02/17 16:16:44;;;;;;;13.27;3.43;;;5.70;99.90;;;;;;6144741;23;20512;-91
2022/02/17 16:19:16;;;;;;;7.80;2.80;;;5.70;99.90;;;;;;6116403;23;20465;-90
2022/02/17 16:21:45;;;;;;;9.73;2.60;;;5.70;99.90;;;;;;6117294;23;20460;-91
2022/02/17 16:24:13;;;;;;;13.60;3.10;;;5.70;99.90;;;;;;6125075;23;20513;-90
2022/02/17 16:26:41;;;;;;;10.40;2.87;;;5.70;99.90;;;;;;6122251;23;20464;-89
2022/02/17 16:29:10;;;;;;;11.63;3.70;;;5.70;99.90;;;;;;6120750;23;20449;-92
2022/02/17 16:31:39;;;;;;;10.97;3.83;;;5.70;99.90;;;;;;6121718;23;20500;-91
2022/02/17 16:34:09;;;;;;;15.30;4.43;;;5.70;99.90;;;;;;6125565;23;20469;-92
2022/02/17 16:36:39;;;;;;;15.67;3.60;;;5.80;99.90;;;;;;6151332;23;20485;-91
2022/02/17 16:39:12;;;;;;;12.30;3.60;;;5.80;99.90;;;;;;6125226;23;20425;-92
2022/02/17 16:41:42;;;;;;;9.30;3.23;;;5.80;99.90;;;;;;6123360;23;20429;-91
2022/02/17 16:44:10;;;;;;;18.00;3.70;;;6.00;99.90;;;;;;6124444;23;20489;-91
2022/02/17 16:46:42;;;;;;;12.90;4.13;;;6.00;99.90;;;;;;6123580;23;20460;-91
2022/02/17 16:49:12;;;;;;;17.53;4.73;;;5.90;99.90;;;;;;6123138;23;20446;-91
2022/02/17 16:51:41;;;;;;;14.73;4.80;;;6.00;99.90;;;;;;6142911;23;20425;-91
2022/02/17 16:54:14;;;;;;;17.80;3.33;;;6.00;99.90;;;;;;6123095;23;20443;-91
2022/02/17 16:56:44;;;;;;;14.67;4.03;;;6.00;99.90;;;;;;6123681;23;20414;-91
2022/02/17 16:59:13;;;;;;;14.80;3.80;;;6.10;99.90;;;;;;6119997;23;20525;-91
2022/02/17 17:01:42;;;;;;;9.83;3.40;;;6.00;99.90;;;;;;6118021;23;20431;-91
2022/02/17 17:04:10;;;;;;;18.17;3.90;;;6.10;99.90;;;;;;6150945;23;20505;-94
2022/02/17 17:06:41;;;;;;;12.70;4.03;;;6.00;99.90;;;;;;6151015;23;20433;-92
2022/02/17 17:09:10;;;;;;;8.90;3.00;;;6.00;99.90;;;;;;6124080;23;20427;-92
2022/02/17 17:11:38;;;;;;;12.03;4.30;;;6.00;99.90;;;;;;6148489;23;20463;-92
2022/02/17 17:14:06;;;;;;;12.70;3.10;;;6.00;99.90;;;;;;6120993;23;20457;-92
2022/02/17 17:16:35;;;;;;;17.13;4.07;;;6.10;99.90;;;;;;6123318;23;20461;-90
2022/02/17 17:19:03;;;;;;;14.83;4.30;;;6.00;99.90;;;;;;6117840;23;20477;-91
2022/02/17 17:21:31;;;;;;;26.77;4.73;;;6.10;99.90;;;;;;6123767;23;20457;-91
2022/02/17 17:24:02;;;;;;;12.80;4.20;;;6.00;99.90;;;;;;6119182;23;20441;-91
2022/02/17 17:26:30;;;;;;;14.43;4.27;;;6.00;99.90;;;;;;6120091;23;20502;-91
2022/02/17 17:28:58;;;;;;;15.00;3.57;;;6.00;99.90;;;;;;6114054;23;20474;-93
2022/02/17 17:31:27;;;;;;;11.37;3.40;;;6.10;99.90;;;;;;6113917;23;20426;-91
2022/02/17 17:33:56;;;;;;;15.03;3.13;;;6.10;99.90;;;;;;6121429;23;20434;-90
2022/02/17 17:36:24;;;;;;;17.43;3.37;;;6.20;99.90;;;;;;6122310;23;20454;-91
2022/02/17 17:38:52;;;;;;;11.13;3.40;;;6.10;99.90;;;;;;6117333;23;20498;-91
2022/02/17 17:41:22;;;;;;;11.00;3.13;;;6.10;99.90;;;;;;6108786;23;20444;-92
2022/02/17 17:43:50;;;;;;;16.97;3.97;;;6.10;99.90;;;;;;6141763;23;20439;-93
2022/02/17 17:46:18;;;;;;;14.40;4.17;;;6.20;99.90;;;;;;6118252;23;20454;-92
2022/02/17 17:48:47;;;;;;;10.70;3.40;;;6.20;99.90;;;;;;6117443;23;20414;-90
2022/02/17 17:51:17;;;;;;;14.50;3.67;;;6.20;99.90;;;;;;6119011;23;20448;-91
2022/02/17 17:53:48;;;;;;;15.07;3.47;;;6.20;99.90;;;;;;6119022;23;20426;-91
2022/02/17 17:56:18;;;;;;;12.40;4.30;;;6.30;99.90;;;;;;6120722;23;20449;-90
2022/02/17 17:58:50;;;;;;;13.77;3.67;;;6.30;99.90;;;;;;6127530;23;20425;-91
2022/02/17 18:01:24;;;;;;;13.37;3.80;;;6.20;99.90;;;;;;6120588;23;20409;-89
2022/02/17 18:03:52;;;;;;;12.53;3.57;;;6.30;99.90;;;;;;6121102;23;20489;-91
2022/02/17 18:06:22;;;;;;;13.50;3.17;;;6.20;99.90;;;;;;6120252;23;20477;-91
2022/02/17 18:08:55;;;;;;;21.67;3.60;;;6.20;99.90;;;;;;6117765;23;20430;-91
2022/02/17 18:11:24;;;;;;;10.20;3.37;;;6.20;99.90;;;;;;6119055;23;20431;-94
2022/02/17 18:13:55;;;;;;;10.50;2.80;;;6.30;99.90;;;;;;6118761;23;20426;-91
2022/02/17 18:16:26;;;;;;;16.17;3.50;;;6.20;99.90;;;;;;6118296;23;20430;-91
2022/02/17 18:18:55;;;;;;;17.10;3.97;;;6.10;99.90;;;;;;6114465;23;20450;-92
2022/02/17 18:21:24;;;;;;;12.27;3.93;;;6.20;99.90;;;;;;6123514;23;20473;-93
2022/02/17 18:23:53;;;;;;;14.17;4.30;;;6.20;99.90;;;;;;6122076;23;20414;-92
2022/02/17 18:26:22;;;;;;;13.87;3.77;;;6.30;99.90;;;;;;6122754;23;20434;-93
2022/02/17 18:28:53;;;;;;;13.63;3.63;;;6.20;99.90;;;;;;6138958;23;20425;-92
2022/02/17 18:31:50;;;;;;;11.97;3.20;;;6.20;99.90;;;;;;6150485;23;20429;-92
2022/02/17 18:34:22;;;;;;;13.20;3.40;;;6.30;99.90;;;;;;6119295;23;20463;-79
2022/02/17 18:36:50;;;;;;;16.33;4.40;;;6.30;99.90;;;;;;6072490;23;20481;-75
2022/02/17 18:39:20;;;;;;;10.30;3.60;;;6.30;99.90;;;;;;6087984;23;20454;-76
2022/02/17 18:41:52;;;;;;;11.20;3.47;;;6.30;99.90;;;;;;6128630;23;20755;-76
2022/02/17 18:45:10;;;;;;;14.07;3.33;;;6.30;99.90;;;;;;6110910;23;20532;-76
2022/02/17 18:47:11;;;;;;;13.03;3.67;;;6.30;99.90;;;;;;6135031;23;20406;-77
2022/02/17 18:49:39;;;;;;;13.27;3.47;;;6.40;99.90;;;;;;6123445;23;20425;-76
2022/02/17 18:52:08;;;;;;;8.47;3.43;;;6.40;99.90;;;;;;6130955;23;20402;-75
2022/02/17 18:54:36;;;;;;;14.80;3.90;;;6.40;99.90;;;;;;6125991;23;20445;-76
2022/02/17 18:57:08;;;;;;;14.60;3.27;;;6.40;99.90;;;;;;6125202;23;20434;-77
2022/02/17 18:59:36;;;;;;;12.70;3.53;;;6.40;99.90;;;;;;6129729;23;20500;-76
2022/02/17 19:02:07;;;;;;;12.43;3.67;;;6.40;99.90;;;;;;6125106;23;20418;-76
2022/02/17 19:04:37;;;;;;;14.07;3.80;;;6.40;99.90;;;;;;6125542;23;20449;-76
2022/02/17 19:07:06;;;;;;;11.07;3.93;;;6.40;99.90;;;;;;6102471;23;20533;-75
2022/02/17 19:09:35;;;;;;;12.60;3.50;;;6.40;99.90;;;;;;6130992;23;20472;-76
2022/02/17 19:12:03;;;;;;;10.40;3.60;;;6.40;99.90;;;;;;6138114;23;20441;-77
2022/02/17 19:14:32;;;;;;;18.00;3.30;;;6.40;99.90;;;;;;6148383;23;20434;-79
2022/02/17 19:17:06;;;;;;;14.63;3.10;;;6.40;99.90;;;;;;6151400;23;20678;-76